Аэропорт: Запорожье. Запорожье

ICAO: UKDE

METAR:
2020-10-19 22:00:00
UKDE 192200Z 29002MPS CAVOK 05/03 Q1024 R20/090070 NOSIG
METAR:
2020-10-19 20:04:00
TAF UKDE 192004Z 1921/2006 29003MPS 4000 BR SCT025 TX09/2006Z TN04/2002Z TEMPO 1921/2003 2100 BR SCT007